Time;durP1;ratioP1;P1;durP2;ratioP2;P2;SDS_P1;SDS_P2;PMS_P1;PMS_P2;Temp;Humidity;BMP_temperature;BMP_pressure;BME280_temperature;BME280_humidity;BME280_pressure;Samples;Min_cycle;Max_cycle;Signal;HPM_P1;HPM_P2
2024/01/20 00:03:19;;;;;;;21.20;9.30;;;;;;;-1.30;100.00;100885.36;4806532;57;1140763;-74
2024/01/20 00:08:25;;;;;;;22.73;6.50;;;;;;;-1.31;100.00;100883.20;4816496;58;1140765;-73
2024/01/20 00:13:30;;;;;;;23.13;8.27;;;;;;;-1.29;100.00;100900.03;4829449;58;1140604;-74
2024/01/20 00:18:36;;;;;;;18.90;7.93;;;;;;;-1.29;100.00;100893.55;4815362;58;1140762;-74
2024/01/20 00:23:41;;;;;;;26.30;9.83;;;;;;;-1.31;100.00;100897.91;4900526;58;1140726;-74
2024/01/20 00:28:47;;;;;;;21.00;7.67;;;;;;;-1.38;100.00;100902.41;4860059;58;1141026;-76
2024/01/20 00:33:53;;;;;;;24.35;7.72;;;;;;;-1.45;100.00;100899.09;4834559;59;1140864;-73
2024/01/20 00:38:58;;;;;;;28.70;8.83;;;;;;;-1.45;100.00;100902.13;4866533;56;1140566;-74
2024/01/20 00:44:04;;;;;;;27.90;8.98;;;;;;;-1.44;100.00;100898.64;4940604;57;1140722;-74
2024/01/20 00:49:10;;;;;;;31.53;11.30;;;;;;;-1.45;100.00;100899.53;4900372;58;1140804;-75
2024/01/20 00:54:15;;;;;;;26.93;8.40;;;;;;;-1.43;100.00;100900.35;4906577;58;1142769;-74
2024/01/20 00:59:21;;;;;;;29.33;9.10;;;;;;;-1.40;100.00;100896.40;4920901;58;1140561;-74
2024/01/20 01:04:27;;;;;;;30.50;8.93;;;;;;;-1.39;100.00;100907.19;4803678;57;1140694;-74
2024/01/20 01:09:32;;;;;;;25.07;9.70;;;;;;;-1.35;100.00;100908.80;4810856;57;1140634;-74
2024/01/20 01:14:38;;;;;;;17.80;6.47;;;;;;;-1.34;100.00;100927.38;4792039;58;1141444;-74
2024/01/20 01:19:44;;;;;;;28.80;10.27;;;;;;;-1.34;100.00;100927.81;4814739;58;1140832;-74
2024/01/20 01:24:49;;;;;;;30.90;10.33;;;;;;;-1.35;100.00;100915.73;4876579;58;1143358;-74
2024/01/20 01:29:55;;;;;;;20.75;9.08;;;;;;;-1.40;100.00;100915.00;4871076;58;1143093;-74
2024/01/20 01:35:00;;;;;;;27.87;10.68;;;;;;;-1.43;100.00;100921.11;4875366;58;1140800;-74
2024/01/20 01:40:07;;;;;;;32.88;9.90;;;;;;;-1.42;100.00;100908.10;4944871;57;1143729;-74
2024/01/20 01:45:13;;;;;;;23.43;9.17;;;;;;;-1.39;100.00;100913.67;4899816;57;1140714;-72
2024/01/20 01:50:19;;;;;;;13.27;5.90;;;;;;;-1.38;100.00;100923.61;4966213;57;1141158;-74
2024/01/20 01:55:28;;;;;;;34.75;10.38;;;;;;;-1.40;100.00;100932.72;4896752;57;1141778;-74
2024/01/20 02:00:33;;;;;;;16.43;8.07;;;;;;;-1.43;100.00;100931.48;4924286;58;1142683;-74
2024/01/20 02:05:39;;;;;;;48.98;8.60;;;;;;;-1.49;100.00;100927.71;4914987;58;1140947;-73
2024/01/20 02:10:49;;;;;;;16.97;8.03;;;;;;;-1.52;100.00;100927.77;4942129;57;1140533;-73
2024/01/20 02:15:54;;;;;;;9.33;4.80;;;;;;;-1.52;100.00;100941.59;4921256;58;1140954;-74
2024/01/20 02:21:00;;;;;;;23.90;8.80;;;;;;;-1.53;100.00;100946.37;4846080;58;1138932;-74
2024/01/20 02:26:06;;;;;;;19.80;6.00;;;;;;;-1.54;100.00;100942.54;4855015;59;1141596;-73
2024/01/20 02:31:11;;;;;;;22.70;5.97;;;;;;;-1.52;100.00;100948.52;4860883;58;1140728;-74
2024/01/20 02:36:17;;;;;;;19.20;6.27;;;;;;;-1.51;100.00;100944.60;4899490;57;1140853;-74
2024/01/20 02:41:22;;;;;;;18.50;7.23;;;;;;;-1.46;100.00;100949.70;5008021;56;1140716;-74
2024/01/20 02:46:28;;;;;;;31.50;10.67;;;;;;;-1.49;100.00;100945.42;4901516;57;1140812;-74
2024/01/20 02:51:34;;;;;;;18.87;6.37;;;;;;;-1.42;100.00;100949.61;4935351;58;1142852;-74
2024/01/20 02:56:39;;;;;;;18.97;7.27;;;;;;;-1.39;100.00;100953.89;4942341;58;1140830;-74
2024/01/20 03:01:45;;;;;;;20.43;7.53;;;;;;;-1.38;100.00;100953.00;4965827;57;1140796;-74
2024/01/20 03:06:50;;;;;;;26.37;7.60;;;;;;;-1.35;100.00;100954.20;4917126;57;1140863;-74
2024/01/20 03:11:56;;;;;;;20.83;6.67;;;;;;;-1.34;100.00;100962.84;4935671;57;1140526;-74
2024/01/20 03:17:01;;;;;;;19.70;7.13;;;;;;;-1.37;100.00;100960.31;4898837;58;1140983;-74
2024/01/20 03:22:07;;;;;;;18.93;6.63;;;;;;;-1.37;100.00;100963.75;4833305;58;1140977;-74
2024/01/20 03:27:14;;;;;;;17.53;7.63;;;;;;;-1.36;100.00;100964.17;4858358;58;1140706;-74
2024/01/20 03:32:19;;;;;;;20.83;8.80;;;;;;;-1.35;100.00;100957.23;4929854;57;1141574;-74
2024/01/20 03:37:25;;;;;;;15.90;7.45;;;;;;;-1.35;100.00;100965.87;4946073;58;1140950;-74
2024/01/20 03:42:31;;;;;;;21.70;7.60;;;;;;;-1.32;100.00;100965.82;4923148;57;1140811;-74
2024/01/20 03:47:36;;;;;;;14.40;5.50;;;;;;;-1.30;100.00;100969.68;4905157;58;1140760;-75
2024/01/20 03:52:42;;;;;;;15.77;6.30;;;;;;;-1.29;100.00;100974.84;4908061;58;1141157;-75
2024/01/20 03:57:47;;;;;;;22.07;6.72;;;;;;;-1.26;100.00;100970.89;4891176;58;1140790;-74
2024/01/20 04:02:53;;;;;;;14.80;7.03;;;;;;;-1.24;100.00;100977.34;4905992;58;1140808;-74
2024/01/20 04:07:59;;;;;;;19.17;7.90;;;;;;;-1.21;100.00;100974.21;4852319;58;1141150;-74
2024/01/20 04:13:04;;;;;;;13.08;5.67;;;;;;;-1.18;100.00;100991.02;4867213;58;1140920;-75
2024/01/20 04:18:10;;;;;;;13.37;5.40;;;;;;;-1.17;100.00;100987.98;4942438;58;1140973;-75
2024/01/20 04:23:16;;;;;;;21.33;6.83;;;;;;;-1.15;100.00;100989.66;4911531;57;1141274;-75
2024/01/20 04:28:21;;;;;;;16.20;7.33;;;;;;;-1.11;100.00;101001.69;4926375;57;1140904;-74
2024/01/20 04:33:27;;;;;;;18.40;8.57;;;;;;;-1.05;100.00;101000.68;4953470;57;1141896;-74
2024/01/20 04:38:33;;;;;;;11.83;6.30;;;;;;;-0.98;100.00;100993.63;4776478;58;1140918;-74
2024/01/20 04:43:38;;;;;;;20.70;8.10;;;;;;;-0.91;100.00;100992.58;4804896;58;1140828;-74
2024/01/20 04:48:44;;;;;;;18.57;7.57;;;;;;;-0.83;100.00;100986.78;4753102;59;1140942;-74
2024/01/20 04:53:49;;;;;;;18.50;7.63;;;;;;;-0.75;100.00;100988.73;4785408;58;1141009;-74
2024/01/20 04:58:56;;;;;;;13.87;6.73;;;;;;;-0.68;100.00;100981.67;4814160;58;1150167;-74
2024/01/20 05:04:02;;;;;;;21.87;7.33;;;;;;;-0.63;100.00;100983.27;4922259;57;1140947;-75
2024/01/20 05:09:07;;;;;;;16.32;6.15;;;;;;;-0.55;100.00;100999.95;4908601;57;1140985;-74
2024/01/20 05:14:13;;;;;;;12.87;6.53;;;;;;;-0.50;100.00;101002.86;4938829;57;1140712;-74
2024/01/20 05:19:18;;;;;;;19.03;7.13;;;;;;;-0.46;100.00;100997.16;4883046;57;1140707;-73
2024/01/20 05:24:24;;;;;;;16.00;7.57;;;;;;;-0.44;100.00;101000.09;4883257;57;1141064;-74
2024/01/20 05:29:29;;;;;;;22.57;7.97;;;;;;;-0.44;100.00;101024.78;4922748;58;1140730;-74
2024/01/20 05:34:35;;;;;;;9.73;4.70;;;;;;;-0.46;100.00;101022.66;4903536;58;1141256;-74
2024/01/20 05:39:41;;;;;;;16.82;6.42;;;;;;;-0.47;100.00;101030.52;4781183;57;1138785;-75
2024/01/20 05:44:46;;;;;;;11.83;5.53;;;;;;;-0.48;100.00;101049.59;4789360;57;1140885;-75
2024/01/20 05:49:53;;;;;;;15.72;7.97;;;;;;;-0.48;100.00;101052.20;4820971;57;1140969;-75
2024/01/20 05:54:59;;;;;;;22.62;10.03;;;;;;;-0.48;100.00;101063.44;4895380;57;1140703;-74
2024/01/20 06:00:05;;;;;;;18.00;6.20;;;;;;;-0.47;100.00;101065.16;4908625;57;1142952;-75
2024/01/20 06:05:11;;;;;;;21.87;5.40;;;;;;;-0.46;100.00;101065.53;4895184;58;1140596;-75
2024/01/20 06:10:17;;;;;;;18.63;7.30;;;;;;;-0.50;100.00;101061.77;4822508;58;1141524;-75
2024/01/20 06:15:22;;;;;;;14.27;6.87;;;;;;;-0.55;100.00;101053.22;4911826;57;1140799;-75
2024/01/20 06:20:28;;;;;;;17.50;6.60;;;;;;;-0.59;100.00;101064.55;4916127;57;1140881;-75
2024/01/20 06:25:34;;;;;;;18.40;7.23;;;;;;;-0.61;100.00;101076.28;4886402;58;1141028;-72
2024/01/20 06:30:39;;;;;;;22.50;6.83;;;;;;;-0.62;100.00;101081.53;4872225;57;1141381;-73
2024/01/20 06:35:45;;;;;;;13.97;6.43;;;;;;;-0.64;100.00;101083.31;4862423;57;1140969;-73
2024/01/20 06:40:50;;;;;;;18.33;9.13;;;;;;;-0.72;100.00;101088.66;4976295;56;1140962;-75
2024/01/20 06:45:56;;;;;;;21.30;7.53;;;;;;;-0.84;100.00;101085.90;4940263;58;1140693;-74
2024/01/20 06:51:14;;;;;;;21.02;8.18;;;;;;;-0.89;100.00;101092.06;4970267;58;1140950;-75
2024/01/20 06:56:10;;;;;;;22.17;9.70;;;;;;;-0.98;100.00;101092.27;4887680;57;1140666;-74
2024/01/20 07:01:16;;;;;;;12.57;6.70;;;;;;;-1.04;100.00;101092.39;4862360;57;1140650;-74
2024/01/20 07:06:26;;;;;;;24.35;9.73;;;;;;;-1.07;100.00;101104.54;4818226;59;1140723;-73
2024/01/20 07:11:32;;;;;;;28.80;9.90;;;;;;;-1.08;100.00;101112.39;4845309;58;1192319;-75
2024/01/20 07:16:38;;;;;;;49.30;17.70;;;;;;;-1.07;100.00;101112.33;4924995;57;1141122;-75
2024/01/20 07:21:43;;;;;;;25.27;11.13;;;;;;;-1.06;100.00;101121.83;4900675;57;1142868;-76
2024/01/20 07:26:49;;;;;;;21.77;7.60;;;;;;;-1.08;100.00;101126.22;4940664;57;1142946;-76
2024/01/20 07:31:55;;;;;;;29.10;11.95;;;;;;;-1.10;100.00;101124.54;4902323;57;1140844;-78
2024/01/20 07:37:00;;;;;;;15.88;7.92;;;;;;;-1.10;100.00;101115.45;4923047;57;1142810;-76
2024/01/20 07:42:06;;;;;;;30.20;11.20;;;;;;;-1.11;100.00;101124.13;4886093;57;1141185;-76
2024/01/20 07:47:14;;;;;;;19.47;9.77;;;;;;;-1.12;100.00;101134.95;4841018;58;1142872;-75
2024/01/20 07:52:19;;;;;;;28.30;11.50;;;;;;;-1.11;100.00;101139.25;4900059;57;1140793;-72
2024/01/20 07:57:24;;;;;;;27.30;11.33;;;;;;;-1.12;100.00;101139.28;4912154;57;1142665;-76
2024/01/20 08:02:30;;;;;;;19.10;8.97;;;;;;;-1.07;100.00;101142.66;4893191;57;1142696;-76
2024/01/20 08:07:35;;;;;;;20.20;9.13;;;;;;;-1.02;100.00;101141.23;4841840;58;1140709;-76
2024/01/20 08:12:42;;;;;;;15.17;6.23;;;;;;;-0.94;100.00;101150.60;4907258;58;1141010;-76
2024/01/20 08:17:47;;;;;;;23.20;10.73;;;;;;;-0.89;100.00;101143.99;4816635;58;1140524;-76
2024/01/20 08:22:53;;;;;;;26.57;9.40;;;;;;;-0.82;100.00;101151.64;4918888;58;1142631;-76
2024/01/20 08:27:59;;;;;;;42.77;16.43;;;;;;;-0.73;100.00;101144.09;4785766;58;1140951;-76
2024/01/20 08:33:04;;;;;;;48.63;18.77;;;;;;;-0.66;100.00;101143.52;4982527;56;1143560;-77
2024/01/20 08:38:10;;;;;;;73.40;21.67;;;;;;;-0.59;100.00;101158.93;4995525;56;1144575;-77
2024/01/20 08:43:16;;;;;;;53.10;22.20;;;;;;;-0.58;100.00;101166.28;4929638;57;1143163;-77
2024/01/20 08:48:22;;;;;;;18.53;8.50;;;;;;;-0.56;100.00;101164.06;4956048;57;1142872;-77
2024/01/20 08:53:29;;;;;;;42.33;17.33;;;;;;;-0.55;100.00;101164.92;4887989;57;1140513;-77
2024/01/20 08:58:34;;;;;;;31.80;11.90;;;;;;;-0.53;100.00;101177.00;4925567;57;1142966;-78
2024/01/20 09:03:40;;;;;;;43.73;12.47;;;;;;;-0.53;100.00;101185.23;4940217;57;1143756;-77
2024/01/20 09:08:46;;;;;;;24.77;9.83;;;;;;;-0.53;100.00;101174.40;4917108;57;1142786;-76
2024/01/20 09:13:52;;;;;;;25.40;10.50;;;;;;;-0.49;100.00;101177.34;4943147;58;1140520;-77
2024/01/20 09:18:58;;;;;;;25.73;11.70;;;;;;;-0.46;100.00;101179.86;4895477;57;1142951;-81
2024/01/20 09:24:03;;;;;;;18.60;7.72;;;;;;;-0.40;100.00;101181.48;4947630;57;1143225;-77
2024/01/20 09:29:09;;;;;;;24.93;13.03;;;;;;;-0.34;100.00;101183.09;4933436;57;1140976;-75
2024/01/20 09:34:15;;;;;;;31.95;14.43;;;;;;;-0.33;100.00;101188.27;4936611;56;1142823;-80
2024/01/20 09:39:20;;;;;;;23.57;10.53;;;;;;;-0.32;100.00;101191.27;5086359;57;1142850;-79
2024/01/20 09:44:27;;;;;;;21.67;9.50;;;;;;;-0.27;100.00;101188.55;4946485;56;1142828;-76
2024/01/20 09:49:32;;;;;;;31.90;9.80;;;;;;;-0.25;100.00;101190.67;4887812;57;1141490;-77
2024/01/20 09:54:43;;;;;;;35.87;12.97;;;;;;;-0.26;100.00;101198.92;4837393;58;1141110;-78
2024/01/20 09:59:50;;;;;;;20.00;9.13;;;;;;;-0.28;100.00;101196.80;4860498;58;1142947;-78
2024/01/20 10:05:01;;;;;;;50.93;17.13;;;;;;;-0.25;100.00;101204.97;4886194;58;1140830;-76
2024/01/20 10:10:09;;;;;;;24.15;10.05;;;;;;;-0.23;100.00;101183.26;4917171;58;1142898;-80
2024/01/20 10:15:15;;;;;;;77.32;23.42;;;;;;;-0.19;100.00;101190.11;4950741;58;1142977;-78
2024/01/20 10:20:31;;;;;;;24.47;10.60;;;;;;;-0.18;100.00;101202.22;4927287;58;1142857;-80
2024/01/20 10:25:34;;;;;;;18.43;9.73;;;;;;;-0.16;100.00;101169.69;4907079;58;1143340;-76
2024/01/20 10:30:40;;;;;;;21.75;7.90;;;;;;;-0.09;100.00;101177.73;4798389;57;1141273;-77
2024/01/20 10:35:45;;;;;;;22.47;10.53;;;;;;;-0.02;100.00;101172.37;4992368;56;1140942;-80
2024/01/20 10:40:53;;;;;;;23.13;9.10;;;;;;;0.03;100.00;101178.74;4908827;56;1143847;-79
2024/01/20 10:46:14;;;;;;;17.33;8.27;;;;;;;0.09;100.00;101172.55;4910583;57;1138408;-78
2024/01/20 10:51:27;;;;;;;24.63;12.40;;;;;;;0.17;100.00;101160.20;4906866;58;1138519;-79
2024/01/20 10:56:34;;;;;;;21.48;10.15;;;;;;;0.28;100.00;101171.22;4941714;57;1141089;-77
2024/01/20 11:01:42;;;;;;;29.37;12.03;;;;;;;0.38;100.00;101173.13;4965956;57;1150301;-75
2024/01/20 11:06:48;;;;;;;26.30;11.37;;;;;;;0.41;100.00;101176.97;4913262;57;1140545;-76
2024/01/20 11:12:06;;;;;;;20.07;7.90;;;;;;;0.38;100.00;101171.83;4916341;57;1140644;-76
2024/01/20 11:17:14;;;;;;;15.28;7.70;;;;;;;0.34;100.00;101183.61;4949830;58;1138533;-77
2024/01/20 11:22:38;;;;;;;22.80;8.67;;;;;;;0.32;100.00;101168.48;4952042;57;1138652;-81
2024/01/20 11:27:57;;;;;;;23.90;8.97;;;;;;;0.38;100.00;101169.23;4808839;57;1138566;-80
2024/01/20 11:33:04;;;;;;;24.53;9.60;;;;;;;0.45;100.00;101165.15;4909849;58;1139022;-76
2024/01/20 11:38:11;;;;;;;20.83;7.13;;;;;;;0.50;100.00;101172.81;4939949;57;1138874;-78
2024/01/20 11:43:17;;;;;;;11.37;7.47;;;;;;;0.59;100.00;101179.10;4907113;57;1138512;-78
2024/01/20 11:48:22;;;;;;;24.18;9.05;;;;;;;0.63;100.00;101188.06;4898363;58;1138786;-81
2024/01/20 11:53:28;;;;;;;26.57;9.93;;;;;;;0.66;100.00;101180.63;4924788;57;1138815;-79
2024/01/20 11:58:34;;;;;;;19.13;9.67;;;;;;;0.71;100.00;101173.56;4911748;58;1138642;-79
2024/01/20 12:03:41;;;;;;;17.70;8.17;;;;;;;0.73;100.00;101161.81;4909340;58;1138713;-79
2024/01/20 12:08:47;;;;;;;21.87;8.93;;;;;;;0.75;100.00;101159.58;4927656;58;1138734;-78
2024/01/20 12:13:55;;;;;;;17.83;8.13;;;;;;;0.82;100.00;101153.73;4912957;57;1138758;-80
2024/01/20 12:19:00;;;;;;;17.80;7.57;;;;;;;0.94;100.00;101160.77;4904538;58;1138718;-79
2024/01/20 12:24:09;;;;;;;23.17;8.13;;;;;;;1.06;100.00;101162.20;4899724;58;1243243;-79
2024/01/20 12:29:15;;;;;;;20.15;10.08;;;;;;;1.14;100.00;101168.03;4904395;58;1138844;-85
2024/01/20 12:34:24;;;;;;;19.45;7.55;;;;;;;1.15;100.00;101177.55;4910009;58;1141275;-82
2024/01/20 12:39:28;;;;;;;25.77;9.87;;;;;;;1.13;100.00;101185.86;4910196;56;1138822;-83
2024/01/20 12:44:33;;;;;;;15.47;7.90;;;;;;;1.11;100.00;101188.09;4911000;58;1138621;-79
2024/01/20 12:49:39;;;;;;;22.00;9.13;;;;;;;1.09;100.00;101189.87;4914020;58;1138759;-83
2024/01/20 12:54:45;;;;;;;19.17;9.77;;;;;;;1.07;100.00;101189.09;4927590;58;1138854;-80
2024/01/20 12:59:50;;;;;;;21.47;7.40;;;;;;;1.04;100.00;101185.67;4810856;58;1138683;-83
2024/01/20 13:04:56;;;;;;;20.93;8.67;;;;;;;1.06;100.00;101183.03;4793660;58;1138743;-83
2024/01/20 13:10:02;;;;;;;33.17;9.33;;;;;;;1.05;100.00;101194.34;4871597;58;1138420;-81
2024/01/20 13:15:10;;;;;;;16.62;6.58;;;;;;;1.04;100.00;101190.89;4837741;58;1139010;-80
2024/01/20 13:20:15;;;;;;;15.17;8.87;;;;;;;1.03;100.00;101215.67;4868396;58;1138952;-79
2024/01/20 13:25:21;;;;;;;24.15;7.95;;;;;;;1.00;100.00;101224.41;4877048;58;1138993;-82
2024/01/20 13:30:27;;;;;;;17.27;7.77;;;;;;;1.00;100.00;101224.41;4859452;58;1138763;-82
2024/01/20 13:35:32;;;;;;;18.60;7.30;;;;;;;0.99;100.00;101221.41;4824128;57;1138902;-83
2024/01/20 13:40:40;;;;;;;15.37;7.27;;;;;;;0.99;100.00;101230.97;4873999;58;1138574;-80
2024/01/20 13:45:46;;;;;;;21.37;8.83;;;;;;;0.98;100.00;101237.92;4929925;57;1138798;-80
2024/01/20 13:50:51;;;;;;;31.87;9.23;;;;;;;0.99;100.00;101246.59;4876067;58;1138834;-81
2024/01/20 13:55:57;;;;;;;18.57;8.30;;;;;;;1.00;100.00;101252.21;4849184;58;1138694;-84
2024/01/20 14:01:03;;;;;;;18.90;8.23;;;;;;;0.98;100.00;101265.27;4893657;58;1138651;-79
2024/01/20 14:06:09;;;;;;;15.90;6.27;;;;;;;0.94;100.00;101279.26;4855216;58;1138584;-82
2024/01/20 14:11:15;;;;;;;23.52;8.15;;;;;;;0.94;100.00;101279.26;4860744;58;1138611;-84
2024/01/20 14:16:20;;;;;;;18.67;8.23;;;;;;;0.98;100.00;101290.01;4871789;58;1138588;-81
2024/01/20 14:21:27;;;;;;;14.35;6.67;;;;;;;0.98;100.00;101291.31;4864068;58;1138865;-81
2024/01/20 14:26:33;;;;;;;20.60;7.50;;;;;;;0.98;100.00;101305.64;4929728;57;1138558;-78
2024/01/20 14:31:53;;;;;;;15.20;8.07;;;;;;;1.01;100.00;101312.08;4907472;57;1138552;-79
2024/01/20 14:36:58;;;;;;;20.37;6.80;;;;;;;0.99;100.00;101322.98;4957753;57;1138541;-77
2024/01/20 14:42:04;;;;;;;16.10;7.93;;;;;;;1.01;100.00;101338.13;4895069;58;1138382;-75
2024/01/20 14:47:10;;;;;;;22.83;7.20;;;;;;;1.03;100.00;101344.59;4831328;58;1138627;-70
2024/01/20 14:52:16;;;;;;;22.03;8.20;;;;;;;1.03;100.00;101351.11;4851303;58;1148076;-72
2024/01/20 14:57:23;;;;;;;22.47;7.87;;;;;;;1.05;100.00;101371.02;4853929;58;1138571;-73
2024/01/20 15:02:28;;;;;;;17.77;8.13;;;;;;;1.05;100.00;101367.12;4866281;58;1138547;-71
2024/01/20 15:07:35;;;;;;;23.50;8.45;;;;;;;1.03;100.00;101376.72;4855766;58;1138626;-79
2024/01/20 15:12:40;;;;;;;15.13;8.33;;;;;;;1.01;100.00;101373.29;4899437;57;1138576;-78
2024/01/20 15:17:46;;;;;;;12.27;7.27;;;;;;;1.02;100.00;101391.08;4974150;57;1138653;-78
2024/01/20 15:22:52;;;;;;;20.73;7.37;;;;;;;0.97;100.00;101391.17;4807524;58;1138765;-81
2024/01/20 15:27:57;;;;;;;19.25;8.40;;;;;;;0.95;100.00;101394.26;4786464;58;1139050;-82
2024/01/20 15:33:05;;;;;;;24.17;7.73;;;;;;;0.92;100.00;101403.44;4838496;59;1138741;-78
2024/01/20 15:38:11;;;;;;;17.17;7.75;;;;;;;0.92;100.00;101413.86;4943016;56;1139061;-79
2024/01/20 15:43:16;;;;;;;17.37;7.70;;;;;;;0.94;100.00;101416.43;4943233;57;1138801;-78
2024/01/20 15:48:22;;;;;;;19.10;7.20;;;;;;;0.94;100.00;101422.94;4799802;58;1138674;-82
2024/01/20 15:53:28;;;;;;;13.43;7.05;;;;;;;0.92;100.00;101424.27;4826936;57;1138846;-79
2024/01/20 15:58:33;;;;;;;12.13;7.03;;;;;;;0.92;100.00;101435.14;4952932;57;1138570;-81
2024/01/20 16:03:39;;;;;;;17.73;7.90;;;;;;;0.93;100.00;101438.16;4775239;58;1138714;-78
2024/01/20 16:08:44;;;;;;;15.93;7.15;;;;;;;0.95;100.00;101442.89;4808660;57;1138887;-78
2024/01/20 16:13:50;;;;;;;13.07;7.07;;;;;;;0.97;100.00;101448.92;4824631;58;1138472;-81
2024/01/20 16:18:56;;;;;;;12.33;7.07;;;;;;;0.98;100.00;101441.52;4911773;58;1138355;-78
2024/01/20 16:24:01;;;;;;;17.00;7.53;;;;;;;1.01;100.00;101460.55;4881178;58;1138811;-82
2024/01/20 16:29:07;;;;;;;14.67;7.03;;;;;;;1.00;100.00;101469.25;4869685;58;1138655;-80
2024/01/20 16:34:14;;;;;;;18.17;7.03;;;;;;;1.03;100.00;101475.70;4727175;59;1138628;-79
2024/01/20 16:39:20;;;;;;;17.70;7.67;;;;;;;1.04;100.00;101481.32;4913022;58;1139098;-79
2024/01/20 16:44:26;;;;;;;20.68;9.30;;;;;;;1.07;100.00;101492.09;4952140;57;1138746;-79
2024/01/20 16:49:31;;;;;;;26.23;8.77;;;;;;;1.09;100.00;101499.42;4912901;57;1138919;-79
2024/01/20 16:54:37;;;;;;;14.40;8.00;;;;;;;1.11;100.00;101515.02;4926052;57;1138945;-79
2024/01/20 16:59:43;;;;;;;15.00;7.05;;;;;;;1.12;100.00;101518.90;4908030;57;1138798;-78
2024/01/20 17:04:49;;;;;;;32.47;8.67;;;;;;;1.14;100.00;101530.59;4927279;57;1138566;-78
2024/01/20 17:09:54;;;;;;;20.87;8.33;;;;;;;1.15;100.00;101535.77;4925641;57;1139120;-78
2024/01/20 17:15:00;;;;;;;23.03;8.80;;;;;;;1.16;100.00;101535.33;4883300;57;1138724;-78
2024/01/20 17:20:07;;;;;;;22.57;8.63;;;;;;;1.15;100.00;101537.52;4904100;57;1139264;-77
2024/01/20 17:25:13;;;;;;;19.25;9.13;;;;;;;1.15;100.00;101541.42;4872708;58;1138934;-78
2024/01/20 17:30:18;;;;;;;18.35;7.03;;;;;;;1.15;100.00;101555.76;4832418;57;1138704;-78
2024/01/20 17:35:24;;;;;;;15.57;7.30;;;;;;;1.14;100.00;101564.02;4970505;57;1139040;-77
2024/01/20 17:40:29;;;;;;;25.33;9.20;;;;;;;1.13;100.00;101571.42;4944298;57;1138876;-77
2024/01/20 17:45:35;;;;;;;24.40;7.77;;;;;;;1.15;100.00;101588.33;4904302;57;1138981;-80
2024/01/20 17:50:40;;;;;;;35.35;7.97;;;;;;;1.13;100.00;101583.59;4934076;57;1139417;-79
2024/01/20 17:55:46;;;;;;;21.53;8.03;;;;;;;1.11;100.00;101594.48;4918917;57;1138626;-80
2024/01/20 18:00:51;;;;;;;29.23;8.80;;;;;;;1.11;100.00;101608.36;4910590;57;1138801;-78
2024/01/20 18:05:57;;;;;;;20.50;9.00;;;;;;;1.08;100.00;101614.94;4926562;58;1138901;-78
2024/01/20 18:11:03;;;;;;;27.00;9.10;;;;;;;1.09;100.00;101628.82;4932964;57;1138709;-79
2024/01/20 18:16:08;;;;;;;22.93;6.67;;;;;;;1.05;100.00;101635.42;4877851;57;1138863;-78
2024/01/20 18:21:15;;;;;;;22.83;8.37;;;;;;;1.03;100.00;101642.85;4847163;58;1138969;-79
2024/01/20 18:26:20;;;;;;;16.33;6.50;;;;;;;1.00;100.00;101651.58;4783450;57;1143112;-79
2024/01/20 18:31:26;;;;;;;25.07;8.77;;;;;;;1.00;100.00;101656.80;4838744;58;1142557;-77
2024/01/20 18:36:32;;;;;;;21.97;8.58;;;;;;;1.00;100.00;101663.75;4857296;58;1138567;-79
2024/01/20 18:41:37;;;;;;;19.02;8.18;;;;;;;1.00;100.00;101680.23;4861620;58;1139733;-79
2024/01/20 18:46:43;;;;;;;21.63;7.87;;;;;;;0.98;100.00;101680.70;4924627;58;1139466;-78
2024/01/20 18:51:48;;;;;;;15.90;7.43;;;;;;;1.01;100.00;101696.72;4910491;58;1139108;-78
2024/01/20 18:56:54;;;;;;;12.87;6.23;;;;;;;1.01;100.00;101705.84;4905689;58;1138657;-77
2024/01/20 19:01:59;;;;;;;17.37;8.47;;;;;;;1.01;100.00;101711.05;4917074;57;1138792;-78
2024/01/20 19:07:08;;;;;;;13.33;8.00;;;;;;;1.02;100.00;101731.00;4913548;58;1138649;-79
2024/01/20 19:12:14;;;;;;;23.53;8.83;;;;;;;1.02;100.00;101725.35;4879255;57;1138673;-78
2024/01/20 19:17:19;;;;;;;15.10;7.93;;;;;;;1.02;100.00;101730.56;4885459;58;1138848;-78
2024/01/20 19:22:27;;;;;;;23.10;8.90;;;;;;;1.04;100.00;101735.30;4833485;59;1139028;-78
2024/01/20 19:27:32;;;;;;;18.50;7.00;;;;;;;1.05;100.00;101732.25;4868950;58;1138891;-77
2024/01/20 19:32:38;;;;;;;20.02;8.75;;;;;;;1.04;100.00;101739.66;4824165;57;1138862;-79
2024/01/20 19:37:43;;;;;;;21.80;9.00;;;;;;;1.04;100.00;101748.33;4945138;56;1139617;-79
2024/01/20 19:42:49;;;;;;;21.13;8.60;;;;;;;1.04;100.00;101759.19;4965045;56;1139165;-77
2024/01/20 19:47:55;;;;;;;30.60;8.75;;;;;;;1.05;100.00;101765.68;4929182;57;1138761;-79
2024/01/20 19:53:00;;;;;;;25.00;9.63;;;;;;;1.05;100.00;101770.89;4961779;56;1138939;-79
2024/01/20 19:58:06;;;;;;;25.93;8.47;;;;;;;1.07;100.00;101776.52;4924622;56;1138609;-77
2024/01/20 20:03:11;;;;;;;25.20;8.70;;;;;;;1.07;100.00;101778.64;4915604;56;1139411;-79
2024/01/20 20:08:22;;;;;;;19.57;8.70;;;;;;;1.09;100.00;101789.90;4969049;56;1139705;-79
2024/01/20 20:13:24;;;;;;;17.80;7.93;;;;;;;1.09;100.00;101791.20;4942093;56;1138778;-79
2024/01/20 20:18:32;;;;;;;19.25;6.97;;;;;;;1.11;100.00;101791.17;4892826;57;1138660;-78
2024/01/20 20:23:37;;;;;;;18.17;7.73;;;;;;;1.10;100.00;101802.05;4879928;57;1138634;-79
2024/01/20 20:28:43;;;;;;;21.23;9.63;;;;;;;1.12;100.00;101806.79;4933273;57;1138908;-77
2024/01/20 20:33:50;;;;;;;26.97;8.20;;;;;;;1.13;100.00;101815.02;4899048;58;1138971;-79
2024/01/20 20:38:56;;;;;;;19.97;7.47;;;;;;;1.13;100.00;101806.34;4808062;58;1138674;-77
2024/01/20 20:44:01;;;;;;;18.13;8.20;;;;;;;1.15;100.00;101806.73;4798811;58;1139001;-76
2024/01/20 20:49:07;;;;;;;17.50;8.87;;;;;;;1.16;100.00;101814.97;4911941;57;1138628;-77
2024/01/20 20:54:13;;;;;;;20.13;8.80;;;;;;;1.17;100.00;101823.66;4933749;56;1138632;-78
2024/01/20 20:59:19;;;;;;;22.97;9.50;;;;;;;1.15;100.00;101836.70;4978874;57;1138697;-78
2024/01/20 21:04:25;;;;;;;24.67;9.73;;;;;;;1.12;100.00;101839.80;4974249;57;1138793;-79
2024/01/20 21:09:30;;;;;;;27.40;10.67;;;;;;;1.10;100.00;101849.38;4927483;57;1138605;-78
2024/01/20 21:14:37;;;;;;;31.68;11.43;;;;;;;1.03;100.00;101848.64;4926841;57;1140787;-77
2024/01/20 21:19:43;;;;;;;26.73;11.37;;;;;;;0.98;100.00;101852.62;4940301;57;1140835;-79
2024/01/20 21:24:48;;;;;;;26.00;9.83;;;;;;;0.95;100.00;101851.36;4946382;57;1140982;-77
2024/01/20 21:29:54;;;;;;;26.93;10.00;;;;;;;0.92;100.00;101851.41;4949861;57;1138620;-79
2024/01/20 21:35:00;;;;;;;33.07;11.43;;;;;;;0.90;100.00;101860.16;4967762;57;1141139;-82
2024/01/20 21:40:08;;;;;;;25.17;10.40;;;;;;;0.87;100.00;101861.50;4940103;57;1141067;-80
2024/01/20 21:45:13;;;;;;;27.67;12.10;;;;;;;0.80;100.00;101876.35;4937400;57;1140939;-78
2024/01/20 21:50:20;;;;;;;23.60;9.60;;;;;;;0.78;100.00;101882.46;4945181;57;1140887;-76
2024/01/20 21:55:26;;;;;;;17.00;8.57;;;;;;;0.75;100.00;101880.80;4906292;57;1140108;-78
2024/01/20 22:00:31;;;;;;;28.05;11.12;;;;;;;0.74;100.00;101893.83;4927313;57;1138879;-78
2024/01/20 22:05:38;;;;;;;32.88;11.45;;;;;;;0.70;100.00;101901.69;4875020;58;1140820;-79
2024/01/20 22:10:44;;;;;;;28.17;11.57;;;;;;;0.70;100.00;101908.63;4915806;57;1140755;-78
2024/01/20 22:15:49;;;;;;;26.90;11.67;;;;;;;0.67;100.00;101912.14;4923634;57;1141056;-76
2024/01/20 22:20:55;;;;;;;19.90;9.53;;;;;;;0.69;100.00;101911.67;4950483;57;1140641;-78
2024/01/20 22:26:01;;;;;;;19.40;8.83;;;;;;;0.70;100.00;101920.35;4986969;56;1138842;-78
2024/01/20 22:31:06;;;;;;;22.67;9.87;;;;;;;0.68;100.00;101924.27;4871689;57;1138759;-77
2024/01/20 22:36:12;;;;;;;25.20;10.67;;;;;;;0.68;100.00;101921.67;4858849;58;1138463;-77
2024/01/20 22:41:18;;;;;;;23.47;9.10;;;;;;;0.67;100.00;101925.16;4928173;57;1140972;-77
2024/01/20 22:46:25;;;;;;;21.58;10.14;;;;;;;0.67;100.00;101932.10;4974784;57;1138932;-79